Time;durP1;ratioP1;P1;durP2;ratioP2;P2;SDS_P1;SDS_P2;PMS_P1;PMS_P2;Temp;Humidity;BMP_temperature;BMP_pressure;BME280_temperature;BME280_humidity;BME280_pressure;Samples;Min_cycle;Max_cycle;Signal;HPM_P1;HPM_P2
2022/08/03 00:01:39;;;;;;;0.20;0.20;;;;;;;29.57;38.51;99054.97;5051107;28;20096;-59
2022/08/03 00:04:05;;;;;;;0.32;0.30;;;;;;;29.58;38.71;99048.13;5051165;28;20075;-59
2022/08/03 00:06:31;;;;;;;0.38;0.28;;;;;;;29.58;38.90;99052.97;5050958;28;20127;-59
2022/08/03 00:08:57;;;;;;;0.40;0.40;;;;;;;29.58;38.83;99052.97;5050926;28;20116;-59
2022/08/03 00:11:23;;;;;;;0.50;0.32;;;;;;;29.59;38.78;99058.16;5050673;28;20045;-58
2022/08/03 00:13:48;;;;;;;0.45;0.20;;;;;;;29.59;38.69;99049.69;5050779;28;20045;-58
2022/08/03 00:16:14;;;;;;;0.35;0.30;;;;;;;29.57;38.98;99054.97;5050676;28;20090;-59
2022/08/03 00:18:40;;;;;;;0.30;0.30;;;;;;;29.60;39.11;99056.13;5050637;28;20408;-58
2022/08/03 00:21:05;;;;;;;0.43;0.32;;;;;;;29.59;38.78;99051.72;5050353;28;20462;-57
2022/08/03 00:23:31;;;;;;;0.30;0.30;;;;;;;29.59;38.72;99060.97;5050734;28;20045;-57
2022/08/03 00:25:57;;;;;;;0.32;0.30;;;;;;;29.58;38.81;99056.56;5050532;28;20045;-58
2022/08/03 00:28:22;;;;;;;0.38;0.30;;;;;;;29.59;38.81;99058.16;5048316;28;20045;-59
2022/08/03 00:30:48;;;;;;;0.30;0.30;;;;;;;29.59;38.82;99060.19;5049157;28;20049;-58
2022/08/03 00:33:14;;;;;;;0.75;0.45;;;;;;;29.57;38.83;99046.50;5050303;28;20444;-58
2022/08/03 00:35:39;;;;;;;0.22;0.20;;;;;;;29.59;38.64;99051.72;5050454;28;20072;-58
2022/08/03 00:38:05;;;;;;;0.45;0.30;;;;;;;29.57;38.62;99048.53;5050127;28;20463;-59
2022/08/03 00:40:31;;;;;;;0.45;0.30;;;;;;;29.59;38.55;99051.72;5050338;28;20522;-58
2022/08/03 00:42:59;;;;;;;0.32;0.30;;;;;;;29.58;38.97;99050.16;5050307;28;20548;-58
2022/08/03 00:45:27;;;;;;;0.40;0.30;;;;;;;29.57;39.04;99052.16;5050274;28;20049;-59
2022/08/03 00:47:53;;;;;;;0.47;0.35;;;;;;;29.60;38.99;99056.13;5050126;28;20049;-58
2022/08/03 00:50:21;;;;;;;0.30;0.30;;;;;;;29.59;38.81;99051.72;5050348;28;20143;-58
2022/08/03 00:52:48;;;;;;;0.43;0.38;;;;;;;29.59;38.63;99049.69;5050172;28;20071;-58
2022/08/03 00:55:14;;;;;;;0.20;0.20;;;;;;;29.59;38.69;99046.88;5049592;28;20037;-59
2022/08/03 00:57:41;;;;;;;0.38;0.25;;;;;;;29.59;38.61;99049.69;5050033;28;20045;-57
2022/08/03 01:00:08;;;;;;;0.28;0.20;;;;;;;29.58;38.94;99050.94;5050165;28;20235;-58
2022/08/03 01:02:34;;;;;;;0.30;0.30;;;;;;;29.60;38.58;99047.66;5050211;28;20531;-59
2022/08/03 01:04:59;;;;;;;0.30;0.30;;;;;;;29.60;38.73;99045.63;5049937;28;20044;-59
2022/08/03 01:07:45;;;;;;;0.28;0.20;;;;;;;29.59;39.03;99049.69;5050078;28;20493;-59
2022/08/03 01:10:38;;;;;;;0.40;0.35;;;;;;;29.59;38.69;99052.50;5048068;28;20045;-59
2022/08/03 01:13:12;;;;;;;0.50;0.40;;;;;;;29.59;39.10;99046.09;5049990;28;20049;-58
2022/08/03 01:15:57;;;;;;;0.30;0.30;;;;;;;29.57;39.09;99040.88;5049851;28;20075;-59
2022/08/03 01:18:31;;;;;;;0.85;0.40;;;;;;;29.58;38.79;99038.88;5048107;28;20433;-59
2022/08/03 01:21:00;;;;;;;0.35;0.30;;;;;;;29.57;39.09;99040.88;5049644;28;20076;-59
2022/08/03 01:23:44;;;;;;;0.82;0.30;;;;;;;29.58;39.20;99038.88;5049670;28;20060;-59
2022/08/03 01:26:28;;;;;;;0.30;0.30;;;;;;;29.58;38.70;99048.13;5049848;28;20064;-59
2022/08/03 01:29:28;;;;;;;0.28;0.28;;;;;;;29.57;39.08;99046.50;5049919;28;20041;-59
2022/08/03 01:32:01;;;;;;;0.20;0.20;;;;;;;29.59;38.82;99046.09;5037784;28;20056;-58
2022/08/03 01:34:31;;;;;;;0.45;0.30;;;;;;;29.57;38.80;99042.91;5049577;28;20037;-59
2022/08/03 01:37:00;;;;;;;0.30;0.30;;;;;;;29.54;38.77;99030.50;5049481;28;20053;-59
2022/08/03 01:39:29;;;;;;;0.35;0.30;;;;;;;29.59;39.13;99043.28;5049569;28;20136;-59
2022/08/03 01:41:58;;;;;;;0.70;0.40;;;;;;;29.58;39.02;99048.13;5049666;28;20091;-59
2022/08/03 01:44:26;;;;;;;0.50;0.22;;;;;;;29.59;39.13;99051.72;5049395;28;20454;-59
2022/08/03 01:46:53;;;;;;;0.22;0.20;;;;;;;29.58;39.03;99052.97;5049406;28;20045;-58
2022/08/03 01:49:18;;;;;;;0.32;0.30;;;;;;;29.59;38.84;99055.34;5049388;28;20439;-59
2022/08/03 01:51:47;;;;;;;0.47;0.38;;;;;;;29.58;38.75;99050.94;5049285;28;20052;-58
2022/08/03 01:54:13;;;;;;;0.35;0.30;;;;;;;29.59;39.12;99052.50;5049213;28;20489;-58
2022/08/03 01:56:41;;;;;;;1.25;0.30;;;;;;;29.58;38.74;99052.97;5049478;28;20051;-59
2022/08/03 01:59:10;;;;;;;0.32;0.30;;;;;;;29.58;38.97;99053.75;5049170;28;20036;-59
2022/08/03 02:01:36;;;;;;;0.25;0.25;;;;;;;29.59;39.16;99057.38;5049343;28;20049;-59
2022/08/03 02:04:03;;;;;;;0.25;0.22;;;;;;;29.59;39.05;99044.06;5049330;28;20041;-58
2022/08/03 02:06:32;;;;;;;0.63;0.35;;;;;;;29.59;39.16;99049.69;5048004;28;20052;-58
2022/08/03 02:08:59;;;;;;;0.40;0.32;;;;;;;29.58;39.05;99055.78;5046741;28;20056;-59
2022/08/03 02:11:26;;;;;;;1.20;0.20;;;;;;;29.60;39.18;99056.13;5049097;28;20075;-58
2022/08/03 02:13:53;;;;;;;0.22;0.22;;;;;;;29.59;38.96;99055.34;5049058;28;20052;-57
2022/08/03 02:16:21;;;;;;;0.63;0.30;;;;;;;29.58;38.95;99053.75;5048817;28;20137;-58
2022/08/03 02:18:47;;;;;;;0.20;0.20;;;;;;;29.59;39.07;99060.97;5048859;28;20048;-57
2022/08/03 02:21:14;;;;;;;0.30;0.30;;;;;;;29.60;39.12;99059.72;5048755;28;20083;-58
2022/08/03 02:23:40;;;;;;;0.30;0.30;;;;;;;29.61;39.12;99057.72;5048913;28;20515;-59
2022/08/03 02:26:10;;;;;;;0.20;0.20;;;;;;;29.62;38.86;99050.03;5048746;28;20204;-59
2022/08/03 02:28:40;;;;;;;0.57;0.30;;;;;;;29.62;38.81;99058.50;5040794;28;20037;-57
2022/08/03 02:31:12;;;;;;;0.60;0.40;;;;;;;29.60;38.87;99048.47;5048854;28;20049;-59
2022/08/03 02:33:42;;;;;;;0.60;0.50;;;;;;;29.64;38.69;99056.00;5048633;28;20511;-57
2022/08/03 02:36:12;;;;;;;0.30;0.30;;;;;;;29.65;38.79;99052.78;5048644;28;20045;-58
2022/08/03 02:38:41;;;;;;;0.35;0.30;;;;;;;29.65;38.90;99047.13;5048618;28;20094;-58
2022/08/03 02:41:12;;;;;;;0.40;0.30;;;;;;;29.66;39.13;99050.75;5048754;28;20064;-59
2022/08/03 02:43:39;;;;;;;0.30;0.30;;;;;;;29.64;38.75;99050.38;5048646;28;20087;-58
2022/08/03 02:46:08;;;;;;;0.30;0.30;;;;;;;29.65;39.01;99047.13;5048616;28;20240;-57
2022/08/03 02:48:36;;;;;;;0.45;0.30;;;;;;;29.64;38.75;99044.75;5048602;28;20114;-58
2022/08/03 02:51:03;;;;;;;0.65;0.32;;;;;;;29.67;38.97;99052.31;5046760;28;20913;-58
2022/08/03 02:53:30;;;;;;;0.20;0.20;;;;;;;29.68;39.08;99051.09;5048442;28;20049;-59
2022/08/03 02:55:58;;;;;;;0.30;0.20;;;;;;;29.67;38.95;99043.88;5048514;28;20041;-59
2022/08/03 02:58:24;;;;;;;0.30;0.30;;;;;;;29.67;39.00;99049.50;5048371;28;20049;-59
2022/08/03 03:00:51;;;;;;;0.30;0.30;;;;;;;29.68;38.74;99051.09;5048333;28;20084;-58
2022/08/03 03:03:17;;;;;;;0.40;0.30;;;;;;;29.69;38.87;99049.84;5048508;28;20095;-58
2022/08/03 03:05:44;;;;;;;0.70;0.40;;;;;;;29.65;39.07;99044.31;5048507;28;20126;-58
2022/08/03 03:08:15;;;;;;;0.40;0.40;;;;;;;29.69;38.94;99049.84;5048449;28;20047;-57
2022/08/03 03:10:42;;;;;;;0.75;0.40;;;;;;;29.68;38.72;99043.41;5048417;28;20045;-58
2022/08/03 03:13:08;;;;;;;0.43;0.30;;;;;;;29.68;38.68;99054.69;5048264;28;20492;-59
2022/08/03 03:15:36;;;;;;;0.70;0.30;;;;;;;29.70;38.77;99045.78;5048132;28;20053;-58
2022/08/03 03:18:02;;;;;;;0.40;0.40;;;;;;;29.69;38.54;99047.03;5050791;28;20053;-59
2022/08/03 03:20:31;;;;;;;0.40;0.22;;;;;;;29.70;38.99;99049.38;5051577;28;20045;-59
2022/08/03 03:22:59;;;;;;;0.20;0.20;;;;;;;29.70;38.98;99051.41;5049826;28;20413;-59
2022/08/03 03:25:25;;;;;;;0.30;0.20;;;;;;;29.72;38.92;99063.03;5049390;28;20052;-58
2022/08/03 03:27:51;;;;;;;0.30;0.30;;;;;;;29.71;38.62;99059.44;5051683;28;20052;-57
2022/08/03 03:30:16;;;;;;;0.45;0.40;;;;;;;29.70;38.52;99057.84;5051539;28;20505;-59
2022/08/03 03:32:42;;;;;;;0.52;0.28;;;;;;;29.73;38.57;99053.38;5051539;28;20476;-58
2022/08/03 03:35:08;;;;;;;0.30;0.30;;;;;;;29.71;38.72;99058.63;5051414;28;20051;-58
2022/08/03 03:37:34;;;;;;;0.40;0.30;;;;;;;29.72;39.02;99054.59;5051226;28;20440;-59
2022/08/03 03:39:59;;;;;;;0.30;0.25;;;;;;;29.71;38.94;99061.47;5051321;28;20053;-58
2022/08/03 03:42:25;;;;;;;0.30;0.30;;;;;;;29.72;39.03;99058.22;5051074;28;20131;-58
2022/08/03 03:44:51;;;;;;;0.50;0.50;;;;;;;29.69;38.41;99056.28;5049339;28;20097;-58
2022/08/03 03:47:16;;;;;;;0.50;0.40;;;;;;;29.72;38.77;99055.41;5051269;28;20129;-58
2022/08/03 03:49:43;;;;;;;0.30;0.20;;;;;;;29.71;38.53;99059.44;5051031;28;20493;-59
2022/08/03 03:52:09;;;;;;;1.00;0.40;;;;;;;29.72;38.87;99051.75;5051143;28;20064;-57
2022/08/03 03:54:42;;;;;;;0.40;0.30;;;;;;;29.72;38.89;99058.22;5051169;28;20060;-58
2022/08/03 03:57:09;;;;;;;0.75;0.20;;;;;;;29.72;39.03;99060.22;5051177;28;20052;-57
2022/08/03 03:59:38;;;;;;;0.32;0.32;;;;;;;29.72;38.63;99061.03;5050874;28;20174;-59
2022/08/03 04:02:05;;;;;;;0.20;0.20;;;;;;;29.71;38.66;99056.59;5051021;28;20045;-59
2022/08/03 04:12:50;;;;;;;0.40;0.30;;;;;;;29.72;38.87;99057.41;5050814;28;20089;-58
2022/08/03 04:15:20;;;;;;;0.30;0.30;;;;;;;29.71;38.51;99062.25;5050715;28;20044;-59
2022/08/03 04:17:49;;;;;;;0.30;0.30;;;;;;;29.72;38.85;99051.75;5050459;28;20049;-59
2022/08/03 04:20:18;;;;;;;0.30;0.30;;;;;;;29.72;38.57;99057.41;5050577;28;20107;-58
2022/08/03 04:22:46;;;;;;;0.28;0.20;;;;;;;29.67;38.83;99055.94;5049212;28;20048;-58
2022/08/03 04:25:17;;;;;;;0.68;0.38;;;;;;;29.72;38.67;99063.03;5050527;28;20051;-59
2022/08/03 04:27:42;;;;;;;0.40;0.32;;;;;;;29.74;39.02;99063.41;5050027;28;20051;-57
2022/08/03 04:30:10;;;;;;;0.50;0.40;;;;;;;29.73;38.50;99073.09;5050044;28;20136;-59
2022/08/03 04:32:37;;;;;;;0.40;0.20;;;;;;;29.73;38.57;99079.53;5050587;28;20461;-59
2022/08/03 04:35:05;;;;;;;0.50;0.30;;;;;;;29.72;38.52;99075.13;5050630;28;20041;-57
2022/08/03 04:37:46;;;;;;;0.38;0.30;;;;;;;29.72;38.62;99086.41;5050553;28;20492;-59
2022/08/03 04:40:21;;;;;;;0.22;0.22;;;;;;;29.73;38.93;99085.16;5050461;28;20056;-58
2022/08/03 04:42:48;;;;;;;1.10;0.20;;;;;;;29.73;38.58;99085.16;5050381;28;20041;-58
2022/08/03 04:45:15;;;;;;;0.28;0.25;;;;;;;29.73;38.47;99088.00;5048632;28;20413;-57
2022/08/03 04:47:41;;;;;;;0.95;0.20;;;;;;;29.72;38.57;99086.41;5050454;28;20439;-58
2022/08/03 04:50:08;;;;;;;0.43;0.30;;;;;;;29.74;38.63;99094.41;5050463;28;20518;-58
2022/08/03 04:52:34;;;;;;;0.40;0.30;;;;;;;29.73;38.72;99092.84;5050217;28;20076;-58
2022/08/03 04:55:00;;;;;;;0.68;0.30;;;;;;;29.72;38.66;99092.03;5050139;28;20079;-58
2022/08/03 04:57:26;;;;;;;0.20;0.20;;;;;;;29.72;38.66;99099.69;5050013;28;20136;-59
2022/08/03 04:59:55;;;;;;;0.55;0.28;;;;;;;29.74;38.67;99100.84;5050072;28;20136;-58
2022/08/03 05:02:21;;;;;;;0.30;0.30;;;;;;;29.73;38.78;99104.91;5049902;28;20124;-58
2022/08/03 05:04:47;;;;;;;0.22;0.20;;;;;;;29.71;38.90;99106.56;5050168;28;20102;-58
2022/08/03 05:07:14;;;;;;;0.93;0.30;;;;;;;29.75;38.50;99110.09;5049840;28;20044;-58
2022/08/03 05:09:39;;;;;;;0.20;0.20;;;;;;;29.74;38.88;99116.97;5049964;28;20131;-58
2022/08/03 05:12:06;;;;;;;0.40;0.30;;;;;;;29.74;38.54;99116.97;5049817;28;20136;-58
2022/08/03 05:14:32;;;;;;;0.35;0.35;;;;;;;29.74;38.69;99112.13;5049777;28;20464;-57
2022/08/03 05:16:58;;;;;;;0.50;0.30;;;;;;;29.73;38.90;99116.19;5049619;28;20481;-58
2022/08/03 05:19:23;;;;;;;0.50;0.40;;;;;;;29.74;38.64;99119.78;5049802;28;20520;-59
2022/08/03 05:21:49;;;;;;;0.28;0.20;;;;;;;29.74;38.77;99122.59;5049678;28;20429;-59
2022/08/03 05:24:14;;;;;;;0.30;0.30;;;;;;;29.75;38.86;99132.66;5049846;28;20167;-58
2022/08/03 05:26:40;;;;;;;0.50;0.30;;;;;;;29.75;38.76;99132.66;5049661;28;20154;-58
2022/08/03 05:29:05;;;;;;;0.20;0.20;;;;;;;29.74;38.64;99137.50;5049741;28;20061;-59
2022/08/03 05:31:31;;;;;;;0.35;0.20;;;;;;;29.72;38.59;99137.16;5049450;28;20045;-59
2022/08/03 05:33:56;;;;;;;0.28;0.20;;;;;;;29.74;38.48;99134.69;5049537;28;20073;-59
2022/08/03 05:36:22;;;;;;;0.40;0.25;;;;;;;29.75;38.70;99146.75;5049399;28;20059;-58
2022/08/03 05:38:47;;;;;;;0.40;0.30;;;;;;;29.75;38.60;99141.09;5049538;28;20610;-58
2022/08/03 05:41:13;;;;;;;0.30;0.30;;;;;;;29.76;38.45;99145.50;5049104;28;20045;-58
2022/08/03 05:43:38;;;;;;;0.22;0.22;;;;;;;29.76;38.76;99148.31;5049221;28;20045;-58
2022/08/03 05:46:03;;;;;;;0.43;0.38;;;;;;;29.75;38.80;99146.75;5049404;28;20045;-59
2022/08/03 05:48:29;;;;;;;0.70;0.22;;;;;;;29.75;38.55;99141.91;5049236;28;21013;-59
2022/08/03 05:50:54;;;;;;;0.40;0.30;;;;;;;29.75;38.71;99153.16;5049273;28;20385;-58
2022/08/03 05:53:20;;;;;;;0.20;0.20;;;;;;;29.76;38.64;99159.59;5049375;28;20483;-58
2022/08/03 05:55:45;;;;;;;0.30;0.30;;;;;;;29.76;38.53;99153.97;5049436;28;20053;-59
2022/08/03 05:58:11;;;;;;;0.30;0.20;;;;;;;29.76;38.90;99151.94;5049266;28;20139;-59
2022/08/03 06:00:36;;;;;;;0.32;0.30;;;;;;;29.74;38.51;99150.81;5049207;28;20037;-59
2022/08/03 06:03:01;;;;;;;0.40;0.40;;;;;;;29.65;38.74;99151.44;5049114;28;20045;-57
2022/08/03 06:05:27;;;;;;;0.43;0.30;;;;;;;29.47;38.17;99154.66;5049242;28;20052;-59
2022/08/03 06:07:53;;;;;;;0.30;0.20;;;;;;;29.35;39.70;99163.81;5049073;28;20559;-58
2022/08/03 06:10:19;;;;;;;0.40;0.30;;;;;;;29.15;39.91;99161.09;5048909;28;20051;-58
2022/08/03 06:12:46;;;;;;;0.28;0.28;;;;;;;29.03;40.17;99156.13;5049104;28;20076;-58
2022/08/03 06:15:12;;;;;;;0.52;0.30;;;;;;;28.99;40.15;99164.66;5048994;28;20091;-58
2022/08/03 06:17:45;;;;;;;0.30;0.30;;;;;;;28.89;40.44;99160.03;5048865;28;20056;-58
2022/08/03 06:20:11;;;;;;;0.50;0.30;;;;;;;28.91;40.38;99160.41;5048835;28;20048;-58
2022/08/03 06:22:36;;;;;;;0.57;0.35;;;;;;;28.92;39.78;99159.19;5049004;28;20042;-58
2022/08/03 06:25:02;;;;;;;0.30;0.22;;;;;;;28.88;39.95;99161.25;5048960;28;20052;-57
2022/08/03 06:27:27;;;;;;;0.30;0.30;;;;;;;28.85;40.44;99162.13;5048871;28;20052;-59
2022/08/03 06:29:53;;;;;;;0.20;0.20;;;;;;;28.78;40.51;99162.28;5048972;28;20045;-58
2022/08/03 06:32:21;;;;;;;0.38;0.30;;;;;;;28.67;40.63;99159.72;5048914;28;20056;-59
2022/08/03 06:34:47;;;;;;;0.65;0.32;;;;;;;28.70;40.80;99155.22;5048587;28;20146;-58
2022/08/03 06:37:12;;;;;;;0.55;0.30;;;;;;;28.70;40.47;99153.19;5048731;28;20408;-59
2022/08/03 06:39:38;;;;;;;0.45;0.30;;;;;;;28.76;40.46;99157.09;5048643;28;20049;-58
2022/08/03 06:42:03;;;;;;;0.30;0.25;;;;;;;28.79;40.43;99161.03;5048732;28;20041;-58
2022/08/03 06:44:29;;;;;;;0.38;0.30;;;;;;;28.78;40.39;99151.81;5048758;28;20123;-58
2022/08/03 06:46:54;;;;;;;0.40;0.30;;;;;;;28.77;40.51;99163.50;5048582;28;20037;-58
2022/08/03 06:49:20;;;;;;;0.35;0.35;;;;;;;28.77;40.43;99157.88;5048680;28;20049;-58
2022/08/03 06:51:45;;;;;;;0.45;0.30;;;;;;;28.75;40.31;99154.72;5049389;28;20052;-57
2022/08/03 06:54:11;;;;;;;0.52;0.30;;;;;;;28.75;40.34;99160.34;5051993;28;20044;-58
2022/08/03 06:56:37;;;;;;;0.30;0.30;;;;;;;28.77;40.42;99157.88;5051786;28;20052;-59
2022/08/03 06:59:02;;;;;;;0.43;0.30;;;;;;;28.70;40.08;99161.66;5051862;28;20060;-58
2022/08/03 07:01:28;;;;;;;0.63;0.35;;;;;;;28.75;40.25;99161.13;5051828;28;20053;-58
2022/08/03 07:03:55;;;;;;;0.43;0.35;;;;;;;28.75;40.23;99166.75;5052028;28;20041;-59
2022/08/03 07:06:20;;;;;;;0.57;0.38;;;;;;;28.75;40.02;99169.59;5051775;28;20527;-57
2022/08/03 07:08:46;;;;;;;0.60;0.40;;;;;;;28.79;40.05;99169.50;5051750;28;20037;-57
2022/08/03 07:11:11;;;;;;;0.40;0.30;;;;;;;28.81;40.08;99163.44;5051783;28;20041;-58
2022/08/03 07:13:36;;;;;;;0.65;0.50;;;;;;;28.81;40.41;99160.63;5051772;28;20041;-58
2022/08/03 07:16:04;;;;;;;1.75;0.30;;;;;;;28.78;40.36;99159.47;5051589;28;20048;-58
2022/08/03 07:18:30;;;;;;;0.38;0.30;;;;;;;28.80;40.38;99168.28;5051657;28;20087;-57
2022/08/03 07:20:56;;;;;;;0.38;0.38;;;;;;;28.82;40.51;99165.81;5051679;28;20127;-58
2022/08/03 07:23:22;;;;;;;1.40;0.50;;;;;;;28.81;40.23;99164.25;5051579;28;20523;-57
2022/08/03 07:25:47;;;;;;;0.43;0.25;;;;;;;28.79;39.78;99161.03;5051442;28;20045;-58
2022/08/03 07:28:13;;;;;;;0.45;0.32;;;;;;;28.74;39.37;99170.81;5051555;28;20131;-58
2022/08/03 07:30:38;;;;;;;0.40;0.40;;;;;;;28.71;40.41;99168.06;5051404;28;20044;-58
2022/08/03 07:33:03;;;;;;;0.40;0.30;;;;;;;28.69;40.35;99171.31;5051695;28;20435;-58
2022/08/03 07:35:29;;;;;;;0.30;0.30;;;;;;;28.64;40.33;99165.41;5051273;28;20045;-58
2022/08/03 07:37:54;;;;;;;0.30;0.30;;;;;;;28.56;40.43;99164.75;5051240;28;20469;-59
2022/08/03 07:40:20;;;;;;;0.38;0.30;;;;;;;28.57;40.35;99168.38;5051444;28;20615;-57
2022/08/03 07:42:46;;;;;;;0.85;0.40;;;;;;;28.62;40.31;99162.22;5051309;28;20048;-58
2022/08/03 07:45:12;;;;;;;0.47;0.20;;;;;;;28.63;40.15;99163.81;5051333;28;20107;-59
2022/08/03 07:47:38;;;;;;;0.40;0.30;;;;;;;28.71;40.16;99162.44;5051073;28;20045;-58
2022/08/03 07:50:05;;;;;;;0.20;0.20;;;;;;;28.69;40.08;99157.25;5051120;28;20044;-58
2022/08/03 07:52:48;;;;;;;0.57;0.30;;;;;;;28.73;40.24;99151.56;5051075;28;20068;-58
2022/08/03 07:55:19;;;;;;;0.52;0.40;;;;;;;28.76;39.66;99153.47;5051171;28;20155;-57
2022/08/03 07:57:45;;;;;;;0.22;0.22;;;;;;;28.69;39.84;99151.63;5049240;28;20110;-59
2022/08/03 08:00:18;;;;;;;0.40;0.40;;;;;;;28.69;39.98;99142.38;5051071;28;20382;-58
2022/08/03 08:02:44;;;;;;;0.20;0.20;;;;;;;28.71;39.82;99149.16;5050207;28;20087;-59
2022/08/03 08:05:11;;;;;;;0.57;0.30;;;;;;;28.75;39.77;99146.28;5051096;28;20382;-59
2022/08/03 08:07:38;;;;;;;0.43;0.32;;;;;;;28.76;39.66;99145.03;5051096;28;20076;-57
2022/08/03 08:10:05;;;;;;;0.22;0.22;;;;;;;28.76;39.58;99139.41;5050927;28;20082;-58
2022/08/03 08:12:31;;;;;;;0.20;0.20;;;;;;;28.78;39.43;99143.38;5048991;28;20045;-58
2022/08/03 08:14:57;;;;;;;0.22;0.22;;;;;;;28.78;39.72;99140.56;5050826;28;20040;-57
2022/08/03 08:17:22;;;;;;;0.98;0.47;;;;;;;28.79;39.59;99139.34;5050654;28;20413;-58
2022/08/03 08:19:47;;;;;;;0.57;0.35;;;;;;;28.79;39.31;99136.53;5050696;28;20064;-59
2022/08/03 08:22:13;;;;;;;0.30;0.22;;;;;;;28.83;39.29;99133.63;5050565;28;20103;-58
2022/08/03 08:24:39;;;;;;;0.32;0.20;;;;;;;28.81;39.09;99129.66;5050524;28;20044;-58
2022/08/03 08:27:04;;;;;;;0.20;0.20;;;;;;;28.81;39.42;99133.28;5050584;28;20098;-58
2022/08/03 08:29:30;;;;;;;0.57;0.30;;;;;;;28.79;39.09;99127.25;5086702;28;20056;-58
2022/08/03 08:31:55;;;;;;;0.22;0.20;;;;;;;28.81;39.33;99126.84;5090730;28;20141;-58
2022/08/03 08:34:20;;;;;;;0.50;0.40;;;;;;;28.85;39.15;99131.16;5090841;28;20036;-57
2022/08/03 08:36:46;;;;;;;0.20;0.20;;;;;;;28.83;39.08;99128.00;5090756;28;20090;-58
2022/08/03 08:39:11;;;;;;;0.75;0.40;;;;;;;28.84;38.96;99123.94;5090710;28;20050;-58
2022/08/03 08:41:37;;;;;;;0.45;0.40;;;;;;;28.86;38.98;99123.50;5090820;28;20043;-58
2022/08/03 08:44:03;;;;;;;0.30;0.30;;;;;;;28.84;39.22;99115.50;5090910;28;20040;-58
2022/08/03 08:46:31;;;;;;;0.38;0.28;;;;;;;28.83;39.16;99121.56;5090832;28;20040;-59
2022/08/03 08:48:58;;;;;;;0.30;0.20;;;;;;;28.82;38.86;99117.97;5090658;28;20500;-58
2022/08/03 08:51:28;;;;;;;0.70;0.30;;;;;;;28.79;38.85;99108.38;5091043;28;20101;-58
2022/08/03 08:53:56;;;;;;;0.85;0.40;;;;;;;28.81;39.19;99112.78;5091096;28;20059;-58
2022/08/03 08:56:24;;;;;;;0.32;0.30;;;;;;;28.82;39.15;99112.34;5090611;28;20032;-59
2022/08/03 08:58:56;;;;;;;0.60;0.47;;;;;;;28.83;38.87;99107.50;5090536;28;20052;-58
2022/08/03 09:01:22;;;;;;;0.35;0.30;;;;;;;28.85;38.84;99107.84;5090605;28;20488;-58
2022/08/03 09:03:48;;;;;;;0.80;0.30;;;;;;;28.85;39.01;99108.63;5090196;28;20054;-59
2022/08/03 09:06:14;;;;;;;0.57;0.35;;;;;;;28.87;39.03;99103.38;5090276;28;20256;-59
2022/08/03 09:08:40;;;;;;;0.43;0.35;;;;;;;28.88;38.76;99104.16;5089983;28;20138;-59
2022/08/03 09:11:06;;;;;;;0.32;0.30;;;;;;;28.89;38.89;99102.94;5090014;28;20256;-58
2022/08/03 09:13:33;;;;;;;0.52;0.30;;;;;;;28.84;38.86;99101.41;5090046;28;20052;-59
2022/08/03 09:16:18;;;;;;;0.52;0.30;;;;;;;28.83;38.80;99101.88;5089639;28;20040;-59
2022/08/03 09:18:49;;;;;;;0.30;0.30;;;;;;;28.83;38.86;99097.03;5088263;28;20051;-59
2022/08/03 09:21:22;;;;;;;0.20;0.20;;;;;;;28.84;38.84;99092.97;5090087;28;20123;-58
2022/08/03 09:23:50;;;;;;;0.77;0.40;;;;;;;28.84;38.87;99092.97;5089985;28;20075;-57
2022/08/03 09:26:26;;;;;;;0.40;0.32;;;;;;;28.85;38.54;99091.75;5089851;28;20040;-58
2022/08/03 09:29:10;;;;;;;0.70;0.30;;;;;;;28.87;38.66;99089.31;5089876;28;20052;-58
2022/08/03 09:31:38;;;;;;;0.50;0.30;;;;;;;28.89;38.71;99084.00;5089778;28;20040;-58
2022/08/03 09:34:09;;;;;;;0.10;0.10;;;;;;;28.86;38.69;99086.91;5089881;28;20046;-59
2022/08/03 09:36:45;;;;;;;0.30;0.30;;;;;;;28.87;38.67;99077.25;5089734;28;20496;-58
2022/08/03 09:39:14;;;;;;;0.40;0.30;;;;;;;28.89;38.59;99080.41;5089656;28;20056;-58
2022/08/03 09:41:43;;;;;;;0.25;0.22;;;;;;;28.90;38.72;99082.00;5089811;28;20044;-58
2022/08/03 09:44:08;;;;;;;0.40;0.30;;;;;;;28.91;38.26;99075.16;5089827;28;20051;-59
2022/08/03 09:46:48;;;;;;;0.73;0.32;;;;;;;28.89;38.51;99067.13;5089648;28;20035;-58
2022/08/03 09:49:13;;;;;;;1.10;0.30;;;;;;;28.89;38.56;99067.13;5089463;28;20044;-59
2022/08/03 09:51:39;;;;;;;0.32;0.30;;;;;;;28.88;38.65;99065.53;5089459;28;20066;-58
2022/08/03 09:54:05;;;;;;;0.30;0.22;;;;;;;28.91;38.41;99070.31;5089498;28;20139;-58
2022/08/03 09:56:41;;;;;;;0.30;0.30;;;;;;;28.89;38.53;99061.50;5089389;28;20346;-59
2022/08/03 09:59:07;;;;;;;0.30;0.28;;;;;;;28.91;38.37;99064.69;5089856;28;20036;-59
2022/08/03 10:01:34;;;;;;;0.20;0.20;;;;;;;28.91;38.41;99058.25;5089590;28;20472;-59
2022/08/03 10:03:59;;;;;;;0.30;0.17;;;;;;;28.92;38.34;99057.03;5089404;28;20411;-58
2022/08/03 10:06:26;;;;;;;0.28;0.20;;;;;;;28.89;38.56;99053.03;5089277;28;20499;-58
2022/08/03 10:09:04;;;;;;;0.35;0.30;;;;;;;28.91;38.60;99058.25;5089501;28;20036;-58
2022/08/03 10:11:31;;;;;;;0.40;0.28;;;;;;;28.89;38.28;99047.41;5089437;28;20071;-59
2022/08/03 10:13:57;;;;;;;0.40;0.30;;;;;;;28.90;38.30;99045.38;5089238;28;20113;-58
2022/08/03 10:16:22;;;;;;;0.22;0.22;;;;;;;28.92;38.42;99042.94;5089365;28;20044;-58
2022/08/03 10:18:48;;;;;;;0.30;0.20;;;;;;;28.89;38.46;99030.53;5088915;28;20040;-58
2022/08/03 10:21:18;;;;;;;0.65;0.20;;;;;;;28.92;38.17;99035.28;5088966;28;20071;-58
2022/08/03 10:23:45;;;;;;;0.52;0.30;;;;;;;28.91;38.37;99030.91;5088898;28;20044;-58
2022/08/03 10:26:15;;;;;;;0.52;0.30;;;;;;;28.93;38.16;99025.59;5089171;28;20052;-58
2022/08/03 10:28:48;;;;;;;0.30;0.28;;;;;;;28.92;38.26;99026.84;5092660;28;20040;-59
2022/08/03 10:31:17;;;;;;;0.82;0.40;;;;;;;28.92;38.09;99023.25;5092535;28;20047;-58
2022/08/03 10:33:46;;;;;;;0.20;0.20;;;;;;;28.93;38.10;99022.78;5092606;28;20040;-57
2022/08/03 10:36:12;;;;;;;0.10;0.10;;;;;;;28.92;38.02;99011.97;5092491;28;20044;-58
2022/08/03 10:38:51;;;;;;;0.25;0.25;;;;;;;28.92;38.12;99012.75;5092613;28;20051;-58
2022/08/03 10:41:19;;;;;;;0.57;0.20;;;;;;;28.94;38.01;99010.31;5092448;28;20055;-58
2022/08/03 10:44:03;;;;;;;0.22;0.22;;;;;;;28.92;38.03;99009.94;5092542;28;20047;-58
2022/08/03 10:46:28;;;;;;;0.80;0.35;;;;;;;28.92;38.03;99007.13;5092601;28;20043;-58
2022/08/03 10:48:55;;;;;;;0.43;0.30;;;;;;;28.94;38.07;99001.88;5092561;28;20117;-57
2022/08/03 10:51:21;;;;;;;0.35;0.25;;;;;;;28.93;37.93;99000.25;5092342;28;20051;-57
2022/08/03 10:53:47;;;;;;;0.20;0.20;;;;;;;28.94;37.85;98987.78;5092377;28;20040;-59
2022/08/03 10:59:39;;;;;;;0.20;0.20;;;;;;;28.94;37.91;98981.38;5092636;28;20522;-59
2022/08/03 11:02:07;;;;;;;0.20;0.20;;;;;;;28.94;37.83;98982.16;5092171;28;20062;-59
2022/08/03 11:04:32;;;;;;;0.30;0.30;;;;;;;28.93;37.64;98976.94;5091956;28;20079;-58
2022/08/03 11:07:17;;;;;;;0.57;0.30;;;;;;;28.94;37.85;98968.09;5092122;28;20067;-59
2022/08/03 11:09:46;;;;;;;0.13;0.13;;;;;;;28.92;38.02;98964.91;5092297;28;20054;-59
2022/08/03 11:12:29;;;;;;;0.22;0.22;;;;;;;28.91;37.82;98960.50;5092219;28;20048;-58
2022/08/03 11:14:56;;;;;;;0.30;0.25;;;;;;;28.93;37.83;98945.97;5092114;28;20044;-59
2022/08/03 11:17:22;;;;;;;0.22;0.22;;;;;;;28.92;37.93;98956.47;5091613;28;20079;-58
2022/08/03 11:19:52;;;;;;;0.30;0.20;;;;;;;28.95;37.76;98946.34;5091798;28;20044;-58
2022/08/03 11:22:18;;;;;;;0.47;0.22;;;;;;;28.93;38.03;98943.94;5072676;28;20653;-59
2022/08/03 11:24:50;;;;;;;0.75;0.32;;;;;;;28.96;37.76;98947.94;5091923;28;20036;-58
2022/08/03 11:27:15;;;;;;;0.38;0.30;;;;;;;28.96;37.71;98931.81;5091910;28;20488;-59
2022/08/03 11:30:17;;;;;;;0.40;0.28;;;;;;;28.95;37.84;98935.88;5091809;28;20047;-59
2022/08/03 11:32:43;;;;;;;0.28;0.20;;;;;;;28.97;37.62;98932.63;5091925;28;20534;-58
2022/08/03 11:35:14;;;;;;;0.50;0.13;;;;;;;28.96;37.83;98931.81;5091550;28;20052;-58
2022/08/03 11:37:55;;;;;;;0.32;0.22;;;;;;;28.96;37.77;98929.00;5090966;28;20154;-58
2022/08/03 11:40:39;;;;;;;0.35;0.25;;;;;;;28.98;37.43;98934.19;5091847;28;20094;-57
2022/08/03 11:43:29;;;;;;;0.28;0.28;;;;;;;29.00;37.72;98912.00;5091730;28;20052;-58
2022/08/03 11:46:15;;;;;;;0.20;0.20;;;;;;;28.99;37.57;98916.84;5091612;28;20056;-59
2022/08/03 11:48:44;;;;;;;0.20;0.20;;;;;;;29.01;37.71;98911.59;5091430;28;20040;-59
2022/08/03 11:51:27;;;;;;;0.32;0.25;;;;;;;29.00;37.59;98901.53;5091397;28;20052;-57